sensor_id;sensor_type;location;lat;lon;timestamp;pressure;altitude;pressure_sealevel;temperature;humidity
12203;BME280;6164;42.178;24.622;2023-05-24T00:01:36;99424.00;;;14.29;100.00
12203;BME280;6164;42.178;24.622;2023-05-24T00:04:06;99419.09;;;14.26;100.00
12203;BME280;6164;42.178;24.622;2023-05-24T00:06:35;99416.91;;;14.08;100.00
12203;BME280;6164;42.178;24.622;2023-05-24T00:09:02;99415.88;;;14.09;100.00
12203;BME280;6164;42.178;24.622;2023-05-24T00:11:29;99414.25;;;14.08;100.00
12203;BME280;6164;42.178;24.622;2023-05-24T00:13:56;99421.41;;;14.08;100.00
12203;BME280;6164;42.178;24.622;2023-05-24T00:16:22;99416.09;;;14.08;100.00
12203;BME280;6164;42.178;24.622;2023-05-24T00:18:51;99413.25;;;14.09;100.00
12203;BME280;6164;42.178;24.622;2023-05-24T00:21:19;99402.38;;;14.04;100.00
12203;BME280;6164;42.178;24.622;2023-05-24T00:23:46;99400.16;;;14.08;100.00
12203;BME280;6164;42.178;24.622;2023-05-24T00:26:12;99401.03;;;14.15;100.00
12203;BME280;6164;42.178;24.622;2023-05-24T00:28:39;99398.78;;;14.18;100.00
12203;BME280;6164;42.178;24.622;2023-05-24T00:31:06;99405.97;;;14.24;100.00
12203;BME280;6164;42.178;24.622;2023-05-24T00:33:33;99403.47;;;14.16;100.00
12203;BME280;6164;42.178;24.622;2023-05-24T00:36:01;99406.66;;;14.05;100.00
12203;BME280;6164;42.178;24.622;2023-05-24T00:38:28;99408.56;;;13.84;100.00
12203;BME280;6164;42.178;24.622;2023-05-24T00:40:54;99407.28;;;13.73;100.00
12203;BME280;6164;42.178;24.622;2023-05-24T00:43:21;99401.34;;;13.71;100.00
12203;BME280;6164;42.178;24.622;2023-05-24T00:45:58;99401.34;;;13.71;100.00
12203;BME280;6164;42.178;24.622;2023-05-24T00:48:35;99400.69;;;13.69;100.00
12203;BME280;6164;42.178;24.622;2023-05-24T00:51:03;99406.34;;;13.60;100.00
12203;BME280;6164;42.178;24.622;2023-05-24T00:53:30;99406.28;;;13.53;100.00
12203;BME280;6164;42.178;24.622;2023-05-24T00:55:59;99403.00;;;13.51;100.00
12203;BME280;6164;42.178;24.622;2023-05-24T00:58:25;99404.81;;;13.44;100.00
12203;BME280;6164;42.178;24.622;2023-05-24T01:00:56;99361.72;;;13.00;100.00
12203;BME280;6164;42.178;24.622;2023-05-24T01:03:24;99398.56;;;13.31;100.00
12203;BME280;6164;42.178;24.622;2023-05-24T01:05:53;99401.88;;;13.18;100.00
12203;BME280;6164;42.178;24.622;2023-05-24T01:11:28;99397.41;;;13.18;100.00
12203;BME280;6164;42.178;24.622;2023-05-24T01:14:05;99376.81;;;12.99;100.00
12203;BME280;6164;42.178;24.622;2023-05-24T01:16:44;99406.78;;;13.14;100.00
12203;BME280;6164;42.178;24.622;2023-05-24T01:19:39;99401.88;;;13.18;100.00
12203;BME280;6164;42.178;24.622;2023-05-24T01:22:20;99400.19;;;13.10;100.00
12203;BME280;6164;42.178;24.622;2023-05-24T01:25:01;99404.31;;;12.98;100.00
12203;BME280;6164;42.178;24.622;2023-05-24T01:27:32;99399.78;;;12.92;100.00
12203;BME280;6164;42.178;24.622;2023-05-24T01:29:59;99390.81;;;12.93;100.00
12203;BME280;6164;42.178;24.622;2023-05-24T01:32:27;99385.88;;;12.90;100.00
12203;BME280;6164;42.178;24.622;2023-05-24T01:34:53;99391.38;;;12.89;100.00
12203;BME280;6164;42.178;24.622;2023-05-24T01:37:20;99389.28;;;12.84;100.00
12203;BME280;6164;42.178;24.622;2023-05-24T01:39:48;99390.72;;;12.87;100.00
12203;BME280;6164;42.178;24.622;2023-05-24T01:42:22;99392.38;;;12.88;100.00
12203;BME280;6164;42.178;24.622;2023-05-24T01:44:56;99394.13;;;12.81;100.00
12203;BME280;6164;42.178;24.622;2023-05-24T01:47:38;99395.41;;;12.85;100.00
12203;BME280;6164;42.178;24.622;2023-05-24T01:50:14;99397.88;;;12.86;100.00
12203;BME280;6164;42.178;24.622;2023-05-24T01:52:43;99397.31;;;12.91;100.00
12203;BME280;6164;42.178;24.622;2023-05-24T01:55:12;99395.66;;;12.90;100.00
12203;BME280;6164;42.178;24.622;2023-05-24T01:57:42;99397.81;;;12.80;100.00
12203;BME280;6164;42.178;24.622;2023-05-24T02:00:13;99398.22;;;12.83;100.00
12203;BME280;6164;42.178;24.622;2023-05-24T02:02:40;99395.66;;;12.90;100.00
12203;BME280;6164;42.178;24.622;2023-05-24T02:05:08;99393.38;;;12.87;100.00
12203;BME280;6164;42.178;24.622;2023-05-24T02:07:35;99398.06;;;12.85;100.00
12203;BME280;6164;42.178;24.622;2023-05-24T02:10:02;99396.22;;;12.85;100.00
12203;BME280;6164;42.178;24.622;2023-05-24T02:12:29;99401.66;;;12.98;100.00
12203;BME280;6164;42.178;24.622;2023-05-24T02:14:56;99393.19;;;12.88;100.00
12203;BME280;6164;42.178;24.622;2023-05-24T02:17:24;99400.41;;;12.94;100.00
12203;BME280;6164;42.178;24.622;2023-05-24T02:19:51;99403.50;;;12.98;100.00
12203;BME280;6164;42.178;24.622;2023-05-24T02:22:18;99406.31;;;12.96;100.00
12203;BME280;6164;42.178;24.622;2023-05-24T02:24:46;99377.88;;;12.84;100.00
12203;BME280;6164;42.178;24.622;2023-05-24T02:27:13;99405.31;;;12.97;100.00
12203;BME280;6164;42.178;24.622;2023-05-24T02:29:40;99407.34;;;12.95;100.00
12203;BME280;6164;42.178;24.622;2023-05-24T02:32:07;99403.31;;;12.99;100.00
12203;BME280;6164;42.178;24.622;2023-05-24T02:34:35;99409.09;;;13.03;100.00
12203;BME280;6164;42.178;24.622;2023-05-24T02:37:02;99411.91;;;13.01;100.00
12203;BME280;6164;42.178;24.622;2023-05-24T02:39:29;99408.72;;;13.06;100.00
12203;BME280;6164;42.178;24.622;2023-05-24T02:41:56;99403.97;;;13.01;100.00
12203;BME280;6164;42.178;24.622;2023-05-24T02:44:22;99407.75;;;13.13;100.00
12203;BME280;6164;42.178;24.622;2023-05-24T02:46:49;99409.41;;;13.14;100.00
12203;BME280;6164;42.178;24.622;2023-05-24T02:49:16;99404.78;;;13.23;100.00
12203;BME280;6164;42.178;24.622;2023-05-24T02:51:44;99412.38;;;13.26;100.00
12203;BME280;6164;42.178;24.622;2023-05-24T02:54:10;99411.94;;;13.23;100.00
12203;BME280;6164;42.178;24.622;2023-05-24T02:56:37;99427.41;;;13.40;100.00
12203;BME280;6164;42.178;24.622;2023-05-24T02:59:04;99432.63;;;13.55;100.00
12203;BME280;6164;42.178;24.622;2023-05-24T03:01:32;99436.16;;;13.62;100.00
12203;BME280;6164;42.178;24.622;2023-05-24T03:03:59;99432.72;;;13.68;100.00
12203;BME280;6164;42.178;24.622;2023-05-24T03:06:26;99431.16;;;13.73;100.00
12203;BME280;6164;42.178;24.622;2023-05-24T03:08:54;99422.84;;;13.83;100.00
12203;BME280;6164;42.178;24.622;2023-05-24T03:11:22;99428.66;;;13.93;100.00
12203;BME280;6164;42.178;24.622;2023-05-24T03:13:50;99420.72;;;13.99;100.00
12203;BME280;6164;42.178;24.622;2023-05-24T03:16:17;99426.66;;;14.01;100.00
12203;BME280;6164;42.178;24.622;2023-05-24T03:18:44;99432.44;;;14.11;100.00
12203;BME280;6164;42.178;24.622;2023-05-24T03:21:10;99430.28;;;14.21;100.00
12203;BME280;6164;42.178;24.622;2023-05-24T03:23:37;99412.25;;;14.17;100.00
12203;BME280;6164;42.178;24.622;2023-05-24T03:26:05;99424.97;;;14.21;100.00
12203;BME280;6164;42.178;24.622;2023-05-24T03:28:32;99424.19;;;14.27;100.00
12203;BME280;6164;42.178;24.622;2023-05-24T03:31:00;99421.56;;;14.34;100.00
12203;BME280;6164;42.178;24.622;2023-05-24T03:33:26;99429.38;;;14.42;100.00
12203;BME280;6164;42.178;24.622;2023-05-24T03:35:53;99426.13;;;14.46;100.00
12203;BME280;6164;42.178;24.622;2023-05-24T03:38:20;99430.25;;;14.49;100.00
12203;BME280;6164;42.178;24.622;2023-05-24T03:40:46;99436.63;;;14.55;100.00
12203;BME280;6164;42.178;24.622;2023-05-24T03:43:14;99436.66;;;14.61;100.00
12203;BME280;6164;42.178;24.622;2023-05-24T03:45:42;99430.09;;;14.64;100.00
12203;BME280;6164;42.178;24.622;2023-05-24T03:48:09;99433.38;;;14.66;100.00
12203;BME280;6164;42.178;24.622;2023-05-24T03:50:35;99425.84;;;14.69;100.00
12203;BME280;6164;42.178;24.622;2023-05-24T03:53:02;99425.66;;;14.71;100.00
12203;BME280;6164;42.178;24.622;2023-05-24T03:55:29;99419.28;;;14.72;100.00
12203;BME280;6164;42.178;24.622;2023-05-24T03:57:56;99417.06;;;14.75;100.00
12203;BME280;6164;42.178;24.622;2023-05-24T04:00:24;99418.72;;;14.83;100.00
12203;BME280;6164;42.178;24.622;2023-05-24T04:02:50;99419.97;;;14.87;100.00
12203;BME280;6164;42.178;24.622;2023-05-24T04:05:17;99427.34;;;14.91;100.00
12203;BME280;6164;42.178;24.622;2023-05-24T04:07:44;99420.19;;;14.92;100.00
12203;BME280;6164;42.178;24.622;2023-05-24T04:10:11;99422.63;;;14.87;100.00
12203;BME280;6164;42.178;24.622;2023-05-24T04:12:37;99435.97;;;15.00;100.00
12203;BME280;6164;42.178;24.622;2023-05-24T04:15:07;99434.75;;;15.02;100.00
12203;BME280;6164;42.178;24.622;2023-05-24T04:17:35;99433.53;;;15.11;100.00
12203;BME280;6164;42.178;24.622;2023-05-24T04:20:02;99429.03;;;15.12;100.00
12203;BME280;6164;42.178;24.622;2023-05-24T04:22:30;99434.78;;;15.22;100.00
12203;BME280;6164;42.178;24.622;2023-05-24T04:24:57;99437.88;;;15.32;100.00
12203;BME280;6164;42.178;24.622;2023-05-24T04:27:24;99437.47;;;15.35;100.00
12203;BME280;6164;42.178;24.622;2023-05-24T04:29:52;99427.44;;;15.30;100.00
12203;BME280;6164;42.178;24.622;2023-05-24T04:32:19;99434.81;;;15.35;100.00
12203;BME280;6164;42.178;24.622;2023-05-24T04:34:47;99410.44;;;15.25;100.00
12203;BME280;6164;42.178;24.622;2023-05-24T04:37:14;99429.69;;;15.27;100.00
12203;BME280;6164;42.178;24.622;2023-05-24T04:39:42;99423.72;;;15.12;100.00
12203;BME280;6164;42.178;24.622;2023-05-24T04:42:09;99435.00;;;15.20;100.00
12203;BME280;6164;42.178;24.622;2023-05-24T04:44:35;99442.16;;;15.20;100.00
12203;BME280;6164;42.178;24.622;2023-05-24T04:47:02;99441.94;;;15.28;100.00
12203;BME280;6164;42.178;24.622;2023-05-24T04:49:29;99443.66;;;15.42;100.00
12203;BME280;6164;42.178;24.622;2023-05-24T04:51:57;99451.81;;;15.47;100.00
12203;BME280;6164;42.178;24.622;2023-05-24T04:54:24;99449.16;;;15.53;100.00
12203;BME280;6164;42.178;24.622;2023-05-24T04:56:51;99448.38;;;15.66;100.00
12203;BME280;6164;42.178;24.622;2023-05-24T04:59:17;99449.22;;;15.79;100.00
12203;BME280;6164;42.178;24.622;2023-05-24T05:01:44;99440.19;;;15.87;100.00
12203;BME280;6164;42.178;24.622;2023-05-24T05:04:11;99436.50;;;16.01;100.00
12203;BME280;6164;42.178;24.622;2023-05-24T05:06:38;99439.75;;;16.10;100.00
12203;BME280;6164;42.178;24.622;2023-05-24T05:09:06;99437.28;;;16.15;100.00
12203;BME280;6164;42.178;24.622;2023-05-24T05:11:35;99431.56;;;16.24;100.00
12203;BME280;6164;42.178;24.622;2023-05-24T05:14:01;99420.22;;;16.42;100.00
12203;BME280;6164;42.178;24.622;2023-05-24T05:16:28;99423.72;;;16.49;100.00
12203;BME280;6164;42.178;24.622;2023-05-24T05:18:55;99420.38;;;16.66;100.00
12203;BME280;6164;42.178;24.622;2023-05-24T05:21:21;99415.59;;;16.81;100.00
12203;BME280;6164;42.178;24.622;2023-05-24T05:23:48;99420.47;;;16.91;100.00
12203;BME280;6164;42.178;24.622;2023-05-24T05:26:16;99426.97;;;17.01;100.00
12203;BME280;6164;42.178;24.622;2023-05-24T05:28:43;99421.66;;;17.01;100.00
12203;BME280;6164;42.178;24.622;2023-05-24T05:31:10;99428.41;;;17.04;100.00
12203;BME280;6164;42.178;24.622;2023-05-24T05:33:36;99424.81;;;17.17;100.00
12203;BME280;6164;42.178;24.622;2023-05-24T05:36:03;99424.19;;;17.21;100.00
12203;BME280;6164;42.178;24.622;2023-05-24T05:38:30;99426.59;;;17.29;100.00
12203;BME280;6164;42.178;24.622;2023-05-24T05:40:57;99431.03;;;17.42;100.00
12203;BME280;6164;42.178;24.622;2023-05-24T05:43:25;99430.56;;;17.51;100.00
12203;BME280;6164;42.178;24.622;2023-05-24T05:45:53;99439.41;;;17.52;100.00
12203;BME280;6164;42.178;24.622;2023-05-24T05:48:20;99440.56;;;17.62;100.00
12203;BME280;6164;42.178;24.622;2023-05-24T05:50:46;99446.88;;;17.68;100.00
12203;BME280;6164;42.178;24.622;2023-05-24T05:53:14;99448.25;;;17.77;100.00
12203;BME280;6164;42.178;24.622;2023-05-24T05:55:41;99435.00;;;17.64;100.00
12203;BME280;6164;42.178;24.622;2023-05-24T05:58:08;99440.31;;;17.70;100.00
12203;BME280;6164;42.178;24.622;2023-05-24T06:00:37;99436.09;;;17.81;100.00
12203;BME280;6164;42.178;24.622;2023-05-24T06:03:04;99441.03;;;17.84;100.00
12203;BME280;6164;42.178;24.622;2023-05-24T06:05:31;99438.13;;;17.85;100.00
12203;BME280;6164;42.178;24.622;2023-05-24T06:07:57;99436.41;;;17.91;100.00
12203;BME280;6164;42.178;24.622;2023-05-24T06:10:24;99445.97;;;18.05;100.00
12203;BME280;6164;42.178;24.622;2023-05-24T06:12:52;99455.53;;;18.12;100.00
12203;BME280;6164;42.178;24.622;2023-05-24T06:15:18;99461.72;;;18.31;100.00
12203;BME280;6164;42.178;24.622;2023-05-24T06:17:48;99459.63;;;18.40;100.00
12203;BME280;6164;42.178;24.622;2023-05-24T06:20:16;99443.06;;;18.49;100.00
12203;BME280;6164;42.178;24.622;2023-05-24T06:22:43;99453.16;;;18.65;100.00
12203;BME280;6164;42.178;24.622;2023-05-24T06:25:10;99452.84;;;18.73;100.00
12203;BME280;6164;42.178;24.622;2023-05-24T06:27:39;99448.72;;;18.77;100.00
12203;BME280;6164;42.178;24.622;2023-05-24T06:30:07;99448.41;;;18.85;100.00
12203;BME280;6164;42.178;24.622;2023-05-24T06:32:33;99454.56;;;19.04;100.00
12203;BME280;6164;42.178;24.622;2023-05-24T06:35:03;99456.16;;;19.05;100.00
12203;BME280;6164;42.178;24.622;2023-05-24T06:37:29;99461.03;;;19.26;100.00
12203;BME280;6164;42.178;24.622;2023-05-24T06:39:57;99450.97;;;19.39;100.00
12203;BME280;6164;42.178;24.622;2023-05-24T06:42:24;99445.91;;;19.49;100.00
12203;BME280;6164;42.178;24.622;2023-05-24T06:44:51;99443.31;;;19.43;100.00
12203;BME280;6164;42.178;24.622;2023-05-24T06:47:19;99435.91;;;19.56;100.00
12203;BME280;6164;42.178;24.622;2023-05-24T06:49:46;99438.59;;;19.56;100.00
12203;BME280;6164;42.178;24.622;2023-05-24T06:52:15;99438.34;;;19.58;100.00
12203;BME280;6164;42.178;24.622;2023-05-24T06:54:42;99441.63;;;19.60;100.00
12203;BME280;6164;42.178;24.622;2023-05-24T06:57:09;99432.56;;;19.73;100.00
12203;BME280;6164;42.178;24.622;2023-05-24T06:59:35;99440.50;;;19.91;100.00
12203;BME280;6164;42.178;24.622;2023-05-24T07:02:02;99433.06;;;20.04;100.00
12203;BME280;6164;42.178;24.622;2023-05-24T07:04:29;99420.59;;;19.98;100.00
12203;BME280;6164;42.178;24.622;2023-05-24T07:06:56;99435.53;;;20.29;100.00
12203;BME280;6164;42.178;24.622;2023-05-24T07:09:24;99430.25;;;20.45;100.00
12203;BME280;6164;42.178;24.622;2023-05-24T07:11:51;99430.34;;;20.62;100.00
12203;BME280;6164;42.178;24.622;2023-05-24T07:14:18;99429.72;;;20.71;100.00
12203;BME280;6164;42.178;24.622;2023-05-24T07:16:47;99427.84;;;20.83;100.00
12203;BME280;6164;42.178;24.622;2023-05-24T07:19:14;99426.16;;;20.94;100.00
12203;BME280;6164;42.178;24.622;2023-05-24T07:21:40;99423.00;;;21.09;100.00
12203;BME280;6164;42.178;24.622;2023-05-24T07:24:07;99422.56;;;21.28;100.00
12203;BME280;6164;42.178;24.622;2023-05-24T07:26:35;99426.88;;;21.46;100.00
12203;BME280;6164;42.178;24.622;2023-05-24T07:29:02;99421.03;;;21.65;100.00
12203;BME280;6164;42.178;24.622;2023-05-24T07:31:29;99435.25;;;21.77;97.35
12203;BME280;6164;42.178;24.622;2023-05-24T07:33:59;99429.72;;;21.84;93.30
12203;BME280;6164;42.178;24.622;2023-05-24T07:36:25;99429.88;;;21.94;91.66
12203;BME280;6164;42.178;24.622;2023-05-24T07:38:56;99421.47;;;22.07;91.22
12203;BME280;6164;42.178;24.622;2023-05-24T07:41:25;99420.47;;;22.13;89.41
12203;BME280;6164;42.178;24.622;2023-05-24T07:43:54;99422.03;;;22.26;91.13
12203;BME280;6164;42.178;24.622;2023-05-24T07:46:20;99419.75;;;22.39;91.06
12203;BME280;6164;42.178;24.622;2023-05-24T07:48:47;99416.72;;;22.52;91.02
12203;BME280;6164;42.178;24.622;2023-05-24T07:51:14;99427.97;;;22.66;86.61
12203;BME280;6164;42.178;24.622;2023-05-24T07:53:41;99422.38;;;22.72;83.90
12203;BME280;6164;42.178;24.622;2023-05-24T07:56:07;99420.84;;;22.76;82.92
12203;BME280;6164;42.178;24.622;2023-05-24T07:58:34;99417.94;;;22.83;84.97
12203;BME280;6164;42.178;24.622;2023-05-24T08:01:03;99416.38;;;22.87;83.28
12203;BME280;6164;42.178;24.622;2023-05-24T08:03:30;99417.03;;;22.99;82.16
12203;BME280;6164;42.178;24.622;2023-05-24T08:05:57;99413.97;;;23.12;84.93
12203;BME280;6164;42.178;24.622;2023-05-24T08:08:24;99421.06;;;23.23;82.85
12203;BME280;6164;42.178;24.622;2023-05-24T08:10:51;99414.06;;;23.22;81.77
12203;BME280;6164;42.178;24.622;2023-05-24T08:13:17;99411.31;;;23.38;82.76
12203;BME280;6164;42.178;24.622;2023-05-24T08:15:44;99408.59;;;23.38;82.62
12203;BME280;6164;42.178;24.622;2023-05-24T08:18:12;99407.94;;;23.53;81.79
12203;BME280;6164;42.178;24.622;2023-05-24T08:20:39;99408.31;;;23.67;81.14
12203;BME280;6164;42.178;24.622;2023-05-24T08:23:06;99411.13;;;23.82;79.47
12203;BME280;6164;42.178;24.622;2023-05-24T08:25:32;99403.78;;;23.72;77.04
12203;BME280;6164;42.178;24.622;2023-05-24T08:27:59;99423.06;;;23.91;75.44
12203;BME280;6164;42.178;24.622;2023-05-24T08:30:26;99417.66;;;23.91;74.52
12203;BME280;6164;42.178;24.622;2023-05-24T08:32:53;99417.63;;;23.86;74.39
12203;BME280;6164;42.178;24.622;2023-05-24T08:35:21;99410.50;;;24.01;76.33
12203;BME280;6164;42.178;24.622;2023-05-24T08:37:48;99409.00;;;24.20;77.69
12203;BME280;6164;42.178;24.622;2023-05-24T08:40:15;99421.28;;;24.43;75.63
12203;BME280;6164;42.178;24.622;2023-05-24T08:42:43;99423.75;;;24.49;71.60
12203;BME280;6164;42.178;24.622;2023-05-24T08:45:11;99429.16;;;24.54;71.52
12203;BME280;6164;42.178;24.622;2023-05-24T08:47:38;99417.38;;;24.71;71.74
12203;BME280;6164;42.178;24.622;2023-05-24T08:50:07;99424.75;;;24.90;69.82
12203;BME280;6164;42.178;24.622;2023-05-24T08:52:35;99425.59;;;25.11;71.64
12203;BME280;6164;42.178;24.622;2023-05-24T08:55:03;99428.34;;;25.26;69.37
12203;BME280;6164;42.178;24.622;2023-05-24T08:57:30;99429.72;;;25.28;68.09
12203;BME280;6164;42.178;24.622;2023-05-24T08:59:59;99427.81;;;25.34;67.63
12203;BME280;6164;42.178;24.622;2023-05-24T09:02:26;99421.88;;;25.22;67.97
12203;BME280;6164;42.178;24.622;2023-05-24T09:04:54;99416.81;;;25.35;70.43
12203;BME280;6164;42.178;24.622;2023-05-24T09:07:21;99428.97;;;25.43;68.39
12203;BME280;6164;42.178;24.622;2023-05-24T09:09:56;99437.06;;;25.48;64.22
12203;BME280;6164;42.178;24.622;2023-05-24T09:12:23;99425.72;;;25.56;64.96
12203;BME280;6164;42.178;24.622;2023-05-24T09:14:52;99417.91;;;25.79;65.96
12203;BME280;6164;42.178;24.622;2023-05-24T09:17:19;99454.41;;;25.97;59.44
12203;BME280;6164;42.178;24.622;2023-05-24T09:19:46;99460.63;;;25.92;57.38
12203;BME280;6164;42.178;24.622;2023-05-24T09:22:14;99438.75;;;26.09;58.86
12203;BME280;6164;42.178;24.622;2023-05-24T09:24:41;99447.06;;;26.28;58.24
12203;BME280;6164;42.178;24.622;2023-05-24T09:27:09;99471.41;;;26.43;54.70
12203;BME280;6164;42.178;24.622;2023-05-24T09:29:36;99485.75;;;26.48;52.96
12203;BME280;6164;42.178;24.622;2023-05-24T09:32:06;99459.50;;;26.54;55.29
12203;BME280;6164;42.178;24.622;2023-05-24T09:34:37;99469.47;;;26.63;53.60
12203;BME280;6164;42.178;24.622;2023-05-24T09:37:05;99482.75;;;26.70;52.65
12203;BME280;6164;42.178;24.622;2023-05-24T09:39:32;99470.25;;;26.79;51.67
12203;BME280;6164;42.178;24.622;2023-05-24T09:42:00;99507.31;;;26.98;49.09
12203;BME280;6164;42.178;24.622;2023-05-24T09:44:29;99475.03;;;27.02;51.53
12203;BME280;6164;42.178;24.622;2023-05-24T09:47:01;99521.00;;;27.27;48.20
12203;BME280;6164;42.178;24.622;2023-05-24T09:49:29;99537.50;;;27.41;47.31
12203;BME280;6164;42.178;24.622;2023-05-24T09:51:56;99540.44;;;27.54;46.24
12203;BME280;6164;42.178;24.622;2023-05-24T09:54:23;99548.00;;;27.57;46.06
12203;BME280;6164;42.178;24.622;2023-05-24T09:56:51;99500.13;;;27.76;49.55
12203;BME280;6164;42.178;24.622;2023-05-24T09:59:17;99528.00;;;27.92;46.82
12203;BME280;6164;42.178;24.622;2023-05-24T10:01:46;99517.81;;;28.07;47.22
12203;BME280;6164;42.178;24.622;2023-05-24T10:04:18;99531.81;;;28.24;45.41
12203;BME280;6164;42.178;24.622;2023-05-24T10:06:45;99554.25;;;28.35;44.20
12203;BME280;6164;42.178;24.622;2023-05-24T10:09:13;99549.25;;;28.47;44.71
12203;BME280;6164;42.178;24.622;2023-05-24T10:11:40;99550.28;;;28.56;43.89
12203;BME280;6164;42.178;24.622;2023-05-24T10:14:08;99565.38;;;28.67;43.12
12203;BME280;6164;42.178;24.622;2023-05-24T10:16:35;99560.31;;;28.84;43.37
12203;BME280;6164;42.178;24.622;2023-05-24T10:19:04;99574.22;;;28.83;42.55
12203;BME280;6164;42.178;24.622;2023-05-24T10:21:31;99546.78;;;28.79;43.00
12203;BME280;6164;42.178;24.622;2023-05-24T10:24:02;99595.03;;;28.92;40.37
12203;BME280;6164;42.178;24.622;2023-05-24T10:26:32;99617.63;;;28.88;39.80
12203;BME280;6164;42.178;24.622;2023-05-24T10:29:03;99583.56;;;28.38;40.97
12203;BME280;6164;42.178;24.622;2023-05-24T10:31:34;99611.72;;;28.47;41.07
12203;BME280;6164;42.178;24.622;2023-05-24T10:34:05;99587.16;;;28.62;42.57
12203;BME280;6164;42.178;24.622;2023-05-24T10:36:32;99598.25;;;28.32;40.11
12203;BME280;6164;42.178;24.622;2023-05-24T10:38:59;99601.94;;;28.51;41.24
12203;BME280;6164;42.178;24.622;2023-05-24T10:41:26;99568.09;;;28.67;41.17
12203;BME280;6164;42.178;24.622;2023-05-24T10:43:53;99562.13;;;28.94;42.27
12203;BME280;6164;42.178;24.622;2023-05-24T10:46:22;99579.50;;;29.21;40.99
12203;BME280;6164;42.178;24.622;2023-05-24T10:48:59;99560.84;;;29.57;42.10
12203;BME280;6164;42.178;24.622;2023-05-24T10:51:33;99606.63;;;29.74;38.91
12203;BME280;6164;42.178;24.622;2023-05-24T10:54:14;99614.34;;;29.67;38.15
12203;BME280;6164;42.178;24.622;2023-05-24T10:56:47;99631.63;;;29.28;38.59
12203;BME280;6164;42.178;24.622;2023-05-24T11:02:09;99616.28;;;28.85;38.89
12203;BME280;6164;42.178;24.622;2023-05-24T11:04:39;99597.44;;;28.65;39.64
12203;BME280;6164;42.178;24.622;2023-05-24T11:07:09;99575.69;;;28.70;40.76
12203;BME280;6164;42.178;24.622;2023-05-24T11:09:36;99584.78;;;28.56;40.37
12203;BME280;6164;42.178;24.622;2023-05-24T11:12:13;99582.94;;;28.51;39.81
12203;BME280;6164;42.178;24.622;2023-05-24T11:14:40;99550.88;;;28.77;41.70
12203;BME280;6164;42.178;24.622;2023-05-24T11:17:15;99555.13;;;28.88;40.67
12203;BME280;6164;42.178;24.622;2023-05-24T11:19:46;99540.34;;;28.70;41.63
12203;BME280;6164;42.178;24.622;2023-05-24T11:22:15;99542.72;;;28.77;41.49
12203;BME280;6164;42.178;24.622;2023-05-24T11:24:43;99572.56;;;28.58;39.69
12203;BME280;6164;42.178;24.622;2023-05-24T11:27:12;99567.47;;;28.47;40.37
12203;BME280;6164;42.178;24.622;2023-05-24T11:29:39;99531.22;;;28.61;41.14
12203;BME280;6164;42.178;24.622;2023-05-24T11:32:07;99559.88;;;29.01;39.88
12203;BME280;6164;42.178;24.622;2023-05-24T11:34:33;99574.81;;;29.27;39.38
12203;BME280;6164;42.178;24.622;2023-05-24T11:37:02;99584.63;;;29.46;37.85
12203;BME280;6164;42.178;24.622;2023-05-24T11:39:32;99609.13;;;29.46;37.41
12203;BME280;6164;42.178;24.622;2023-05-24T11:42:00;99609.28;;;29.55;38.02
12203;BME280;6164;42.178;24.622;2023-05-24T11:44:30;99610.53;;;29.86;37.18
12203;BME280;6164;42.178;24.622;2023-05-24T11:46:57;99619.25;;;30.02;36.66
12203;BME280;6164;42.178;24.622;2023-05-24T11:49:25;99606.13;;;30.27;36.33
12203;BME280;6164;42.178;24.622;2023-05-24T11:51:53;99647.66;;;29.96;35.56
12203;BME280;6164;42.178;24.622;2023-05-24T11:54:20;99623.91;;;30.20;37.97
12203;BME280;6164;42.178;24.622;2023-05-24T11:56:48;99635.63;;;30.39;35.83
12203;BME280;6164;42.178;24.622;2023-05-24T11:59:18;99649.44;;;30.05;36.14
12203;BME280;6164;42.178;24.622;2023-05-24T12:01:47;99610.38;;;29.54;38.15
12203;BME280;6164;42.178;24.622;2023-05-24T12:04:14;99618.16;;;29.42;37.13
12203;BME280;6164;42.178;24.622;2023-05-24T12:06:42;99629.81;;;29.42;36.73
12203;BME280;6164;42.178;24.622;2023-05-24T12:09:10;99626.28;;;29.65;36.05
12203;BME280;6164;42.178;24.622;2023-05-24T12:11:38;99646.09;;;29.71;35.92
12203;BME280;6164;42.178;24.622;2023-05-24T12:14:10;99632.00;;;30.06;36.32
12203;BME280;6164;42.178;24.622;2023-05-24T12:16:38;99646.94;;;30.09;35.54
12203;BME280;6164;42.178;24.622;2023-05-24T12:19:05;99678.88;;;30.22;33.40
12203;BME280;6164;42.178;24.622;2023-05-24T12:21:32;99684.22;;;30.32;34.25
12203;BME280;6164;42.178;24.622;2023-05-24T12:24:09;99682.22;;;30.56;34.29
12203;BME280;6164;42.178;24.622;2023-05-24T12:26:40;99663.94;;;30.01;34.90
12203;BME280;6164;42.178;24.622;2023-05-24T12:29:08;99637.16;;;30.45;35.91
12203;BME280;6164;42.178;24.622;2023-05-24T12:31:36;99641.53;;;30.27;34.89
12203;BME280;6164;42.178;24.622;2023-05-24T12:34:02;99665.03;;;30.18;34.58
12203;BME280;6164;42.178;24.622;2023-05-24T12:36:31;99608.03;;;30.08;36.25
12203;BME280;6164;42.178;24.622;2023-05-24T12:38:58;99631.34;;;30.14;35.21
12203;BME280;6164;42.178;24.622;2023-05-24T12:41:29;99631.03;;;29.97;36.15
12203;BME280;6164;42.178;24.622;2023-05-24T12:43:57;99610.38;;;29.96;37.25
12203;BME280;6164;42.178;24.622;2023-05-24T12:46:25;99627.06;;;29.90;36.11
12203;BME280;6164;42.178;24.622;2023-05-24T12:48:52;99581.31;;;30.29;37.37
12203;BME280;6164;42.178;24.622;2023-05-24T12:51:18;99604.13;;;30.65;36.49
12203;BME280;6164;42.178;24.622;2023-05-24T12:53:45;99615.22;;;31.01;34.73
12203;BME280;6164;42.178;24.622;2023-05-24T12:56:12;99614.63;;;31.17;34.96
12203;BME280;6164;42.178;24.622;2023-05-24T12:58:38;99606.75;;;31.29;34.76
12203;BME280;6164;42.178;24.622;2023-05-24T13:01:05;99647.06;;;31.05;34.42
12203;BME280;6164;42.178;24.622;2023-05-24T13:03:33;99668.25;;;30.44;35.03
12203;BME280;6164;42.178;24.622;2023-05-24T13:06:00;99663.69;;;30.39;34.39